sensor_id;sensor_type;location;lat;lon;timestamp;pressure;altitude;pressure_sealevel;temperature;humidity
60974;BME280;46846;51.528;5.076;2023-12-14T00:00:24;100356.91;;;5.98;93.15
60974;BME280;46846;51.528;5.076;2023-12-14T00:02:49;100357.03;;;5.92;93.29
60974;BME280;46846;51.528;5.076;2023-12-14T00:05:14;100358.59;;;6.02;92.86
60974;BME280;46846;51.528;5.076;2023-12-14T00:07:40;100368.44;;;5.94;93.59
60974;BME280;46846;51.528;5.076;2023-12-14T00:10:05;100378.19;;;5.91;93.65
60974;BME280;46846;51.528;5.076;2023-12-14T00:12:31;100386.13;;;5.91;93.54
60974;BME280;46846;51.528;5.076;2023-12-14T00:14:56;100388.84;;;5.87;93.23
60974;BME280;46846;51.528;5.076;2023-12-14T00:17:22;100398.44;;;5.92;93.85
60974;BME280;46846;51.528;5.076;2023-12-14T00:19:47;100404.59;;;5.92;93.31
60974;BME280;46846;51.528;5.076;2023-12-14T00:22:12;100400.34;;;5.85;93.37
60974;BME280;46846;51.528;5.076;2023-12-14T00:24:38;100407.25;;;5.91;93.38
60974;BME280;46846;51.528;5.076;2023-12-14T00:27:04;100414.09;;;5.99;93.04
60974;BME280;46846;51.528;5.076;2023-12-14T00:29:29;100425.84;;;5.86;93.49
60974;BME280;46846;51.528;5.076;2023-12-14T00:31:54;100423.19;;;5.86;93.24
60974;BME280;46846;51.528;5.076;2023-12-14T00:34:20;100437.28;;;5.86;93.64
60974;BME280;46846;51.528;5.076;2023-12-14T00:36:45;100439.13;;;5.81;94.01
60974;BME280;46846;51.528;5.076;2023-12-14T00:39:11;100438.22;;;5.82;94.08
60974;BME280;46846;51.528;5.076;2023-12-14T00:41:36;100442.56;;;5.86;93.85
60974;BME280;46846;51.528;5.076;2023-12-14T00:44:02;100444.53;;;5.75;94.26
60974;BME280;46846;51.528;5.076;2023-12-14T00:46:27;100448.66;;;5.88;93.77
60974;BME280;46846;51.528;5.076;2023-12-14T00:48:52;100443.41;;;5.87;93.65
60974;BME280;46846;51.528;5.076;2023-12-14T00:51:18;100453.13;;;5.86;93.41
60974;BME280;46846;51.528;5.076;2023-12-14T00:53:43;100452.38;;;5.80;94.03
60974;BME280;46846;51.528;5.076;2023-12-14T00:56:09;100458.41;;;5.86;93.76
60974;BME280;46846;51.528;5.076;2023-12-14T00:58:34;100468.13;;;5.84;93.53
60974;BME280;46846;51.528;5.076;2023-12-14T01:00:59;100470.00;;;5.79;94.12
60974;BME280;46846;51.528;5.076;2023-12-14T01:03:25;100476.22;;;5.75;93.96
60974;BME280;46846;51.528;5.076;2023-12-14T01:05:50;100476.94;;;5.83;92.77
60974;BME280;46846;51.528;5.076;2023-12-14T01:08:15;100484.00;;;5.83;93.56
60974;BME280;46846;51.528;5.076;2023-12-14T01:10:41;100486.69;;;5.80;92.80
60974;BME280;46846;51.528;5.076;2023-12-14T01:13:06;100491.13;;;5.79;93.23
60974;BME280;46846;51.528;5.076;2023-12-14T01:15:33;100488.47;;;5.79;93.19
60974;BME280;46846;51.528;5.076;2023-12-14T01:17:58;100500.16;;;5.67;93.89
60974;BME280;46846;51.528;5.076;2023-12-14T01:20:23;100501.78;;;5.74;93.42
60974;BME280;46846;51.528;5.076;2023-12-14T01:22:49;100504.38;;;5.76;93.04
60974;BME280;46846;51.528;5.076;2023-12-14T01:25:14;100519.44;;;5.71;93.43
60974;BME280;46846;51.528;5.076;2023-12-14T01:27:40;100520.28;;;5.73;93.79
60974;BME280;46846;51.528;5.076;2023-12-14T01:30:05;100525.56;;;5.73;93.20
60974;BME280;46846;51.528;5.076;2023-12-14T01:32:31;100531.88;;;5.64;93.89
60974;BME280;46846;51.528;5.076;2023-12-14T01:34:56;100541.47;;;5.70;93.65
60974;BME280;46846;51.528;5.076;2023-12-14T01:37:21;100544.19;;;5.65;93.97
60974;BME280;46846;51.528;5.076;2023-12-14T01:39:47;100550.22;;;5.72;93.34
60974;BME280;46846;51.528;5.076;2023-12-14T01:42:12;100553.69;;;5.74;93.20
60974;BME280;46846;51.528;5.076;2023-12-14T01:44:38;100566.97;;;5.71;92.76
60974;BME280;46846;51.528;5.076;2023-12-14T01:47:04;100572.34;;;5.65;93.17
60974;BME280;46846;51.528;5.076;2023-12-14T01:49:29;100582.88;;;5.66;93.73
60974;BME280;46846;51.528;5.076;2023-12-14T01:51:54;100582.00;;;5.66;93.20
60974;BME280;46846;51.528;5.076;2023-12-14T01:54:20;100588.09;;;5.71;91.88
60974;BME280;46846;51.528;5.076;2023-12-14T01:56:45;100599.66;;;5.64;92.62
60974;BME280;46846;51.528;5.076;2023-12-14T01:59:11;100600.59;;;5.59;92.92
60974;BME280;46846;51.528;5.076;2023-12-14T02:01:43;100598.78;;;5.63;93.20
60974;BME280;46846;51.528;5.076;2023-12-14T02:04:08;100605.75;;;5.66;93.07
60974;BME280;46846;51.528;5.076;2023-12-14T02:06:35;100601.47;;;5.61;93.42
60974;BME280;46846;51.528;5.076;2023-12-14T02:09:01;100608.44;;;5.64;93.58
60974;BME280;46846;51.528;5.076;2023-12-14T02:11:26;100607.59;;;5.60;93.35
60974;BME280;46846;51.528;5.076;2023-12-14T02:13:52;100619.88;;;5.65;93.22
60974;BME280;46846;51.528;5.076;2023-12-14T02:16:17;100628.78;;;5.59;93.00
60974;BME280;46846;51.528;5.076;2023-12-14T02:18:42;100630.59;;;5.55;93.40
60974;BME280;46846;51.528;5.076;2023-12-14T02:21:09;100627.88;;;5.58;93.02
60974;BME280;46846;51.528;5.076;2023-12-14T02:23:34;100633.22;;;5.55;93.34
60974;BME280;46846;51.528;5.076;2023-12-14T02:25:59;100636.81;;;5.51;93.28
60974;BME280;46846;51.528;5.076;2023-12-14T02:28:25;100635.91;;;5.52;93.31
60974;BME280;46846;51.528;5.076;2023-12-14T02:30:50;100638.59;;;5.49;93.85
60974;BME280;46846;51.528;5.076;2023-12-14T02:33:15;100646.53;;;5.49;93.49
60974;BME280;46846;51.528;5.076;2023-12-14T02:35:42;100650.00;;;5.51;93.85
60974;BME280;46846;51.528;5.076;2023-12-14T02:38:07;100657.00;;;5.54;93.29
60974;BME280;46846;51.528;5.076;2023-12-14T02:40:32;100661.41;;;5.53;93.21
60974;BME280;46846;51.528;5.076;2023-12-14T02:42:58;100663.19;;;5.51;93.15
60974;BME280;46846;51.528;5.076;2023-12-14T02:45:23;100667.66;;;5.47;93.23
60974;BME280;46846;51.528;5.076;2023-12-14T02:47:48;100674.72;;;5.45;93.14
60974;BME280;46846;51.528;5.076;2023-12-14T02:50:15;100680.03;;;5.44;92.99
60974;BME280;46846;51.528;5.076;2023-12-14T02:52:40;100677.41;;;5.42;93.21
60974;BME280;46846;51.528;5.076;2023-12-14T02:55:05;100687.13;;;5.39;93.27
60974;BME280;46846;51.528;5.076;2023-12-14T02:57:31;100682.66;;;5.44;93.21
60974;BME280;46846;51.528;5.076;2023-12-14T02:59:56;100687.09;;;5.43;92.50
60974;BME280;46846;51.528;5.076;2023-12-14T03:02:21;100693.19;;;5.47;92.31
60974;BME280;46846;51.528;5.076;2023-12-14T03:04:47;100699.34;;;5.46;92.10
60974;BME280;46846;51.528;5.076;2023-12-14T03:07:12;100701.28;;;5.36;93.11
60974;BME280;46846;51.528;5.076;2023-12-14T03:09:40;100697.91;;;5.25;93.29
60974;BME280;46846;51.528;5.076;2023-12-14T03:12:10;100697.72;;;5.37;93.21
60974;BME280;46846;51.528;5.076;2023-12-14T03:14:35;100702.94;;;5.42;92.58
60974;BME280;46846;51.528;5.076;2023-12-14T03:17:01;100700.28;;;5.43;92.71
60974;BME280;46846;51.528;5.076;2023-12-14T03:19:27;100694.97;;;5.45;92.62
60974;BME280;46846;51.528;5.076;2023-12-14T03:21:53;100699.31;;;5.47;92.57
60974;BME280;46846;51.528;5.076;2023-12-14T03:24:18;100705.50;;;5.48;92.35
60974;BME280;46846;51.528;5.076;2023-12-14T03:26:44;100708.22;;;5.40;92.23
60974;BME280;46846;51.528;5.076;2023-12-14T03:29:09;100711.69;;;5.44;92.79
60974;BME280;46846;51.528;5.076;2023-12-14T03:31:35;100716.16;;;5.40;92.66
60974;BME280;46846;51.528;5.076;2023-12-14T03:34:00;100714.47;;;5.36;92.40
60974;BME280;46846;51.528;5.076;2023-12-14T03:36:26;100721.50;;;5.34;92.63
60974;BME280;46846;51.528;5.076;2023-12-14T03:38:52;100711.81;;;5.36;92.73
60974;BME280;46846;51.528;5.076;2023-12-14T03:41:18;100714.41;;;5.41;92.74
60974;BME280;46846;51.528;5.076;2023-12-14T03:43:43;100720.59;;;5.38;92.19
60974;BME280;46846;51.528;5.076;2023-12-14T03:46:09;100722.41;;;5.33;92.84
60974;BME280;46846;51.528;5.076;2023-12-14T03:48:35;100725.09;;;5.30;92.28
60974;BME280;46846;51.528;5.076;2023-12-14T03:51:04;100715.31;;;5.38;91.80
60974;BME280;46846;51.528;5.076;2023-12-14T03:53:30;100727.63;;;5.38;91.40
60974;BME280;46846;51.528;5.076;2023-12-14T03:55:59;100733.03;;;5.30;92.26
60974;BME280;46846;51.528;5.076;2023-12-14T03:58:25;100734.81;;;5.28;92.60
60974;BME280;46846;51.528;5.076;2023-12-14T04:00:51;100728.50;;;5.37;91.71
60974;BME280;46846;51.528;5.076;2023-12-14T04:03:17;100728.59;;;5.32;92.48
60974;BME280;46846;51.528;5.076;2023-12-14T04:05:42;100739.06;;;5.37;91.37
60974;BME280;46846;51.528;5.076;2023-12-14T04:08:09;100743.34;;;5.44;91.25
60974;BME280;46846;51.528;5.076;2023-12-14T04:10:34;100750.50;;;5.37;91.49
60974;BME280;46846;51.528;5.076;2023-12-14T04:13:00;100753.97;;;5.41;91.53
60974;BME280;46846;51.528;5.076;2023-12-14T04:15:25;100758.38;;;5.39;91.91
60974;BME280;46846;51.528;5.076;2023-12-14T04:17:51;100767.25;;;5.34;91.46
60974;BME280;46846;51.528;5.076;2023-12-14T04:20:16;100767.19;;;5.38;91.35
60974;BME280;46846;51.528;5.076;2023-12-14T04:22:43;100769.84;;;5.38;91.71
60974;BME280;46846;51.528;5.076;2023-12-14T04:25:09;100774.34;;;5.29;91.94
60974;BME280;46846;51.528;5.076;2023-12-14T04:27:34;100792.88;;;5.26;92.23
60974;BME280;46846;51.528;5.076;2023-12-14T04:30:00;100799.06;;;5.24;92.31
60974;BME280;46846;51.528;5.076;2023-12-14T04:32:25;100802.59;;;5.21;92.74
60974;BME280;46846;51.528;5.076;2023-12-14T04:34:51;100803.50;;;5.20;92.52
60974;BME280;46846;51.528;5.076;2023-12-14T04:37:16;100810.44;;;5.26;92.41
60974;BME280;46846;51.528;5.076;2023-12-14T04:39:42;100815.78;;;5.19;92.38
60974;BME280;46846;51.528;5.076;2023-12-14T04:42:07;100818.44;;;5.19;92.32
60974;BME280;46846;51.528;5.076;2023-12-14T04:44:32;100832.50;;;5.20;92.79
60974;BME280;46846;51.528;5.076;2023-12-14T04:46:58;100840.44;;;5.20;92.74
60974;BME280;46846;51.528;5.076;2023-12-14T04:49:24;100851.03;;;5.17;92.23
60974;BME280;46846;51.528;5.076;2023-12-14T04:51:49;100842.22;;;5.18;92.43
60974;BME280;46846;51.528;5.076;2023-12-14T04:54:14;100849.22;;;5.20;92.53
60974;BME280;46846;51.528;5.076;2023-12-14T04:56:40;100850.03;;;5.26;92.17
60974;BME280;46846;51.528;5.076;2023-12-14T04:59:06;100851.81;;;5.25;92.02
60974;BME280;46846;51.528;5.076;2023-12-14T05:01:32;100851.75;;;5.27;92.00
60974;BME280;46846;51.528;5.076;2023-12-14T05:03:57;100848.28;;;5.23;91.89
60974;BME280;46846;51.528;5.076;2023-12-14T05:06:23;100852.72;;;5.23;92.15
60974;BME280;46846;51.528;5.076;2023-12-14T05:08:48;100871.19;;;5.21;91.91
60974;BME280;46846;51.528;5.076;2023-12-14T05:11:14;100868.56;;;5.21;91.53
60974;BME280;46846;51.528;5.076;2023-12-14T05:13:40;100880.00;;;5.20;91.52
60974;BME280;46846;51.528;5.076;2023-12-14T05:16:06;100888.81;;;5.17;91.78
60974;BME280;46846;51.528;5.076;2023-12-14T05:18:32;100898.53;;;5.15;91.78
60974;BME280;46846;51.528;5.076;2023-12-14T05:20:57;100889.81;;;5.05;92.76
60974;BME280;46846;51.528;5.076;2023-12-14T05:23:23;100910.88;;;5.09;92.20
60974;BME280;46846;51.528;5.076;2023-12-14T05:25:49;100917.94;;;5.06;91.94
60974;BME280;46846;51.528;5.076;2023-12-14T05:28:14;100922.38;;;5.03;92.48
60974;BME280;46846;51.528;5.076;2023-12-14T05:30:39;100931.13;;;5.06;92.36
60974;BME280;46846;51.528;5.076;2023-12-14T05:33:05;100930.34;;;5.00;92.26
60974;BME280;46846;51.528;5.076;2023-12-14T05:35:30;100926.75;;;5.05;92.46
60974;BME280;46846;51.528;5.076;2023-12-14T05:37:55;100935.59;;;4.98;93.13
60974;BME280;46846;51.528;5.076;2023-12-14T05:40:21;100942.59;;;5.04;92.19
60974;BME280;46846;51.528;5.076;2023-12-14T05:42:46;100944.38;;;5.00;92.53
60974;BME280;46846;51.528;5.076;2023-12-14T05:45:12;100946.16;;;5.00;93.04
60974;BME280;46846;51.528;5.076;2023-12-14T05:47:37;100956.75;;;4.92;92.90
60974;BME280;46846;51.528;5.076;2023-12-14T05:50:04;100961.13;;;4.93;92.68
60974;BME280;46846;51.528;5.076;2023-12-14T05:52:30;100964.66;;;4.92;92.49
60974;BME280;46846;51.528;5.076;2023-12-14T05:54:55;100967.31;;;4.93;92.72
60974;BME280;46846;51.528;5.076;2023-12-14T05:57:21;100971.69;;;4.96;92.68
60974;BME280;46846;51.528;5.076;2023-12-14T05:59:46;100970.78;;;4.96;92.81
60974;BME280;46846;51.528;5.076;2023-12-14T06:02:12;100984.03;;;4.89;92.92
60974;BME280;46846;51.528;5.076;2023-12-14T06:04:37;100977.91;;;4.87;93.22
60974;BME280;46846;51.528;5.076;2023-12-14T06:07:03;100984.06;;;4.85;93.84
60974;BME280;46846;51.528;5.076;2023-12-14T06:09:28;100989.38;;;4.80;93.44
60974;BME280;46846;51.528;5.076;2023-12-14T06:12:03;100996.34;;;4.86;93.37
60974;BME280;46846;51.528;5.076;2023-12-14T06:14:30;100999.03;;;4.84;92.95
60974;BME280;46846;51.528;5.076;2023-12-14T06:16:56;100998.13;;;4.87;93.40
60974;BME280;46846;51.528;5.076;2023-12-14T06:19:21;100997.22;;;4.91;93.17
60974;BME280;46846;51.528;5.076;2023-12-14T06:21:47;101002.47;;;4.89;92.94
60974;BME280;46846;51.528;5.076;2023-12-14T06:24:13;101010.44;;;4.88;93.17
60974;BME280;46846;51.528;5.076;2023-12-14T06:26:45;101021.00;;;4.83;92.79
60974;BME280;46846;51.528;5.076;2023-12-14T06:29:11;101016.59;;;4.82;92.48
60974;BME280;46846;51.528;5.076;2023-12-14T06:31:40;101019.22;;;4.85;92.64
60974;BME280;46846;51.528;5.076;2023-12-14T06:34:06;101016.59;;;4.87;92.29
60974;BME280;46846;51.528;5.076;2023-12-14T06:36:32;101028.94;;;4.83;92.72
60974;BME280;46846;51.528;5.076;2023-12-14T06:38:58;101031.56;;;4.83;92.34
60974;BME280;46846;51.528;5.076;2023-12-14T06:41:24;101048.25;;;4.84;92.21
60974;BME280;46846;51.528;5.076;2023-12-14T06:43:50;101052.63;;;4.85;92.03
60974;BME280;46846;51.528;5.076;2023-12-14T06:46:17;101062.28;;;4.87;92.33
60974;BME280;46846;51.528;5.076;2023-12-14T06:48:42;101056.19;;;4.81;91.64
60974;BME280;46846;51.528;5.076;2023-12-14T06:51:08;101058.81;;;4.79;92.23
60974;BME280;46846;51.528;5.076;2023-12-14T06:53:34;101065.84;;;4.83;92.17
60974;BME280;46846;51.528;5.076;2023-12-14T06:56:00;101070.25;;;4.79;92.00
60974;BME280;46846;51.528;5.076;2023-12-14T06:58:26;101080.81;;;4.79;91.71
60974;BME280;46846;51.528;5.076;2023-12-14T07:00:51;101087.78;;;4.85;91.87
60974;BME280;46846;51.528;5.076;2023-12-14T07:03:16;101096.63;;;4.78;92.01
60974;BME280;46846;51.528;5.076;2023-12-14T07:05:42;101093.09;;;4.81;91.85
60974;BME280;46846;51.528;5.076;2023-12-14T07:08:07;101098.38;;;4.79;91.76
60974;BME280;46846;51.528;5.076;2023-12-14T07:10:33;101101.03;;;4.71;91.99
60974;BME280;46846;51.528;5.076;2023-12-14T07:12:59;101109.88;;;4.67;92.48
60974;BME280;46846;51.528;5.076;2023-12-14T07:15:24;101112.50;;;4.69;92.14
60974;BME280;46846;51.528;5.076;2023-12-14T07:17:50;101107.19;;;4.73;92.46
60974;BME280;46846;51.528;5.076;2023-12-14T07:20:15;101114.22;;;4.73;92.40
60974;BME280;46846;51.528;5.076;2023-12-14T07:22:41;101126.47;;;4.78;91.76
60974;BME280;46846;51.528;5.076;2023-12-14T07:25:07;101132.66;;;4.74;91.33
60974;BME280;46846;51.528;5.076;2023-12-14T07:27:33;101139.72;;;4.71;91.51
60974;BME280;46846;51.528;5.076;2023-12-14T07:29:58;101143.22;;;4.76;92.05
60974;BME280;46846;51.528;5.076;2023-12-14T07:32:24;101150.25;;;4.75;91.59
60974;BME280;46846;51.528;5.076;2023-12-14T07:34:49;101138.81;;;4.76;91.55
60974;BME280;46846;51.528;5.076;2023-12-14T07:37:14;101145.81;;;4.77;91.16
60974;BME280;46846;51.528;5.076;2023-12-14T07:39:40;101146.75;;;4.70;91.02
60974;BME280;46846;51.528;5.076;2023-12-14T07:42:05;101152.00;;;4.73;91.44
60974;BME280;46846;51.528;5.076;2023-12-14T07:44:31;101155.56;;;4.66;91.46
60974;BME280;46846;51.528;5.076;2023-12-14T07:46:58;101152.94;;;4.66;91.91
60974;BME280;46846;51.528;5.076;2023-12-14T07:49:24;101152.03;;;4.67;91.66
60974;BME280;46846;51.528;5.076;2023-12-14T07:51:49;101165.22;;;4.67;92.11
60974;BME280;46846;51.528;5.076;2023-12-14T07:54:15;101158.16;;;4.68;91.65
60974;BME280;46846;51.528;5.076;2023-12-14T07:56:40;101163.47;;;4.64;92.37
60974;BME280;46846;51.528;5.076;2023-12-14T07:59:06;101170.50;;;4.69;91.30
60974;BME280;46846;51.528;5.076;2023-12-14T08:01:33;101175.75;;;4.65;92.13
60974;BME280;46846;51.528;5.076;2023-12-14T08:03:59;101179.28;;;4.63;91.70
60974;BME280;46846;51.528;5.076;2023-12-14T08:06:25;101180.16;;;4.62;92.43
60974;BME280;46846;51.528;5.076;2023-12-14T08:08:50;101193.34;;;4.62;91.70
60974;BME280;46846;51.528;5.076;2023-12-14T08:11:16;101186.34;;;4.58;91.67
60974;BME280;46846;51.528;5.076;2023-12-14T08:13:41;101198.63;;;4.63;90.86
60974;BME280;46846;51.528;5.076;2023-12-14T08:16:09;101204.81;;;4.58;91.54
60974;BME280;46846;51.528;5.076;2023-12-14T08:18:36;101209.16;;;4.62;90.50
60974;BME280;46846;51.528;5.076;2023-12-14T08:21:03;101215.31;;;4.61;91.50
60974;BME280;46846;51.528;5.076;2023-12-14T08:23:29;101225.84;;;4.59;91.21
60974;BME280;46846;51.528;5.076;2023-12-14T08:25:55;101232.03;;;4.57;91.24
60974;BME280;46846;51.528;5.076;2023-12-14T08:28:25;101229.41;;;4.54;91.64
60974;BME280;46846;51.528;5.076;2023-12-14T08:30:51;101227.63;;;4.59;91.42
60974;BME280;46846;51.528;5.076;2023-12-14T08:33:16;101220.59;;;4.62;91.43
60974;BME280;46846;51.528;5.076;2023-12-14T08:35:42;101215.31;;;4.62;91.27
60974;BME280;46846;51.528;5.076;2023-12-14T08:38:07;101217.06;;;4.62;91.32
60974;BME280;46846;51.528;5.076;2023-12-14T08:40:32;101228.47;;;4.67;91.43
60974;BME280;46846;51.528;5.076;2023-12-14T08:42:58;101237.28;;;4.58;91.46
60974;BME280;46846;51.528;5.076;2023-12-14T08:45:23;101247.84;;;4.54;90.99
60974;BME280;46846;51.528;5.076;2023-12-14T08:47:48;101258.38;;;4.52;91.52
60974;BME280;46846;51.528;5.076;2023-12-14T08:50:14;101250.47;;;4.58;91.09
60974;BME280;46846;51.528;5.076;2023-12-14T08:52:39;101260.16;;;4.56;92.16
60974;BME280;46846;51.528;5.076;2023-12-14T08:55:05;101261.03;;;4.52;91.51
60974;BME280;46846;51.528;5.076;2023-12-14T08:57:30;101265.44;;;4.50;91.21
60974;BME280;46846;51.528;5.076;2023-12-14T08:59:56;101274.22;;;4.44;91.99
60974;BME280;46846;51.528;5.076;2023-12-14T09:02:21;101283.03;;;4.43;92.06
60974;BME280;46846;51.528;5.076;2023-12-14T09:04:46;101283.88;;;4.44;91.80
60974;BME280;46846;51.528;5.076;2023-12-14T09:07:12;101286.53;;;4.42;91.17
60974;BME280;46846;51.528;5.076;2023-12-14T09:09:37;101292.66;;;4.43;91.58
60974;BME280;46846;51.528;5.076;2023-12-14T09:12:03;101298.81;;;4.40;91.66
60974;BME280;46846;51.528;5.076;2023-12-14T09:14:28;101297.97;;;4.46;91.47
60974;BME280;46846;51.528;5.076;2023-12-14T09:16:54;101326.06;;;4.47;91.00
60974;BME280;46846;51.528;5.076;2023-12-14T09:19:20;101326.06;;;4.45;91.21
60974;BME280;46846;51.528;5.076;2023-12-14T09:21:46;101330.44;;;4.45;91.03
60974;BME280;46846;51.528;5.076;2023-12-14T09:24:11;101336.59;;;4.42;91.88
60974;BME280;46846;51.528;5.076;2023-12-14T09:26:36;101342.72;;;4.47;90.82
60974;BME280;46846;51.528;5.076;2023-12-14T09:29:02;101341.88;;;4.51;90.34
60974;BME280;46846;51.528;5.076;2023-12-14T09:31:27;101344.50;;;4.47;91.23
60974;BME280;46846;51.528;5.076;2023-12-14T09:33:53;101348.00;;;4.52;91.02
60974;BME280;46846;51.528;5.076;2023-12-14T09:36:18;101360.31;;;4.39;91.03
60974;BME280;46846;51.528;5.076;2023-12-14T09:38:44;101366.47;;;4.44;91.05
60974;BME280;46846;51.528;5.076;2023-12-14T09:41:10;101362.06;;;4.42;91.21
60974;BME280;46846;51.528;5.076;2023-12-14T09:43:35;101367.34;;;4.42;91.73
60974;BME280;46846;51.528;5.076;2023-12-14T09:46:01;101374.38;;;4.38;92.17
60974;BME280;46846;51.528;5.076;2023-12-14T09:48:28;101372.63;;;4.43;90.94
60974;BME280;46846;51.528;5.076;2023-12-14T09:50:53;101377.88;;;4.43;91.07
60974;BME280;46846;51.528;5.076;2023-12-14T09:53:19;101386.66;;;4.39;90.96
60974;BME280;46846;51.528;5.076;2023-12-14T09:55:44;101392.81;;;4.49;91.67
60974;BME280;46846;51.528;5.076;2023-12-14T09:58:10;101387.53;;;4.49;91.17
60974;BME280;46846;51.528;5.076;2023-12-14T10:00:37;101395.44;;;4.44;90.54
60974;BME280;46846;51.528;5.076;2023-12-14T10:03:27;101397.19;;;4.45;91.19
60974;BME280;46846;51.528;5.076;2023-12-14T10:05:57;101391.94;;;4.45;90.74
60974;BME280;46846;51.528;5.076;2023-12-14T10:08:23;101393.69;;;4.49;91.02
60974;BME280;46846;51.528;5.076;2023-12-14T10:10:51;101395.44;;;4.54;91.16
60974;BME280;46846;51.528;5.076;2023-12-14T10:13:22;101395.44;;;4.47;90.81
60974;BME280;46846;51.528;5.076;2023-12-14T10:16:00;101399.81;;;4.48;90.69
60974;BME280;46846;51.528;5.076;2023-12-14T10:18:26;101401.59;;;4.54;91.20
60974;BME280;46846;51.528;5.076;2023-12-14T10:20:51;101405.13;;;4.51;90.28
60974;BME280;46846;51.528;5.076;2023-12-14T10:23:16;101403.34;;;4.50;90.22
60974;BME280;46846;51.528;5.076;2023-12-14T10:25:43;101413.00;;;4.45;90.83
60974;BME280;46846;51.528;5.076;2023-12-14T10:28:11;101421.81;;;4.44;91.18
60974;BME280;46846;51.528;5.076;2023-12-14T10:30:38;101420.94;;;4.51;90.83
60974;BME280;46846;51.528;5.076;2023-12-14T10:33:04;101423.56;;;4.45;91.21
60974;BME280;46846;51.528;5.076;2023-12-14T10:35:30;101427.06;;;4.47;90.60
60974;BME280;46846;51.528;5.076;2023-12-14T10:37:55;101434.97;;;4.43;90.87
60974;BME280;46846;51.528;5.076;2023-12-14T10:40:24;101434.09;;;4.44;91.14
60974;BME280;46846;51.528;5.076;2023-12-14T10:42:51;101431.47;;;4.45;91.00
60974;BME280;46846;51.528;5.076;2023-12-14T10:45:17;101435.00;;;4.46;90.82
60974;BME280;46846;51.528;5.076;2023-12-14T10:47:46;101430.56;;;4.46;91.28
60974;BME280;46846;51.528;5.076;2023-12-14T10:50:13;101427.09;;;4.50;90.73
60974;BME280;46846;51.528;5.076;2023-12-14T10:52:39;101433.22;;;4.49;90.88
60974;BME280;46846;51.528;5.076;2023-12-14T10:55:20;101435.84;;;4.48;90.60
60974;BME280;46846;51.528;5.076;2023-12-14T10:57:46;101441.13;;;4.46;90.26
60974;BME280;46846;51.528;5.076;2023-12-14T11:00:12;101446.38;;;4.40;90.91
60974;BME280;46846;51.528;5.076;2023-12-14T11:02:41;101443.75;;;4.40;91.09
60974;BME280;46846;51.528;5.076;2023-12-14T11:05:12;101451.66;;;4.46;90.80
60974;BME280;46846;51.528;5.076;2023-12-14T11:07:53;101463.94;;;4.43;91.12
60974;BME280;46846;51.528;5.076;2023-12-14T11:10:26;101460.44;;;4.34;90.88
60974;BME280;46846;51.528;5.076;2023-12-14T11:12:57;101468.34;;;4.31;91.65
60974;BME280;46846;51.528;5.076;2023-12-14T11:15:25;101466.59;;;4.38;91.64
60974;BME280;46846;51.528;5.076;2023-12-14T11:20:47;101474.50;;;4.38;91.65
60974;BME280;46846;51.528;5.076;2023-12-14T11:23:17;101471.88;;;4.40;91.75
60974;BME280;46846;51.528;5.076;2023-12-14T11:25:48;101474.47;;;4.36;91.00
60974;BME280;46846;51.528;5.076;2023-12-14T11:28:13;101480.63;;;4.35;91.09
60974;BME280;46846;51.528;5.076;2023-12-14T11:30:39;101484.16;;;4.36;91.08
60974;BME280;46846;51.528;5.076;2023-12-14T11:33:04;101479.75;;;4.41;91.59
60974;BME280;46846;51.528;5.076;2023-12-14T11:35:30;101472.75;;;4.49;91.26
60974;BME280;46846;51.528;5.076;2023-12-14T11:37:56;101477.16;;;4.50;91.24
60974;BME280;46846;51.528;5.076;2023-12-14T11:40:27;101476.25;;;4.45;91.24
60974;BME280;46846;51.528;5.076;2023-12-14T11:43:00;101484.16;;;4.44;91.44
60974;BME280;46846;51.528;5.076;2023-12-14T11:45:26;101478.88;;;4.39;91.68
60974;BME280;46846;51.528;5.076;2023-12-14T11:47:52;101487.69;;;4.44;91.55
60974;BME280;46846;51.528;5.076;2023-12-14T11:50:18;101485.94;;;4.48;91.34
60974;BME280;46846;51.528;5.076;2023-12-14T11:52:44;101490.28;;;4.41;90.94
60974;BME280;46846;51.528;5.076;2023-12-14T11:55:10;101489.44;;;4.42;91.47
60974;BME280;46846;51.528;5.076;2023-12-14T11:57:36;101487.69;;;4.46;91.86
60974;BME280;46846;51.528;5.076;2023-12-14T12:00:01;101478.91;;;4.47;91.68
60974;BME280;46846;51.528;5.076;2023-12-14T12:02:28;101486.78;;;4.48;91.23
60974;BME280;46846;51.528;5.076;2023-12-14T12:04:53;101494.69;;;4.39;91.31
60974;BME280;46846;51.528;5.076;2023-12-14T12:07:19;101491.19;;;4.43;91.62
60974;BME280;46846;51.528;5.076;2023-12-14T12:09:45;101489.41;;;4.34;91.73
60974;BME280;46846;51.528;5.076;2023-12-14T12:12:11;101493.81;;;4.42;91.87
60974;BME280;46846;51.528;5.076;2023-12-14T12:14:38;101499.97;;;4.44;91.28
60974;BME280;46846;51.528;5.076;2023-12-14T12:17:04;101496.44;;;4.40;91.40
60974;BME280;46846;51.528;5.076;2023-12-14T12:19:35;101500.84;;;4.47;90.94
60974;BME280;46846;51.528;5.076;2023-12-14T12:22:01;101502.63;;;4.45;91.28
60974;BME280;46846;51.528;5.076;2023-12-14T12:24:27;101500.84;;;4.47;91.06
60974;BME280;46846;51.528;5.076;2023-12-14T12:26:53;101500.00;;;4.47;91.08
60974;BME280;46846;51.528;5.076;2023-12-14T12:29:19;101487.66;;;4.43;91.48
60974;BME280;46846;51.528;5.076;2023-12-14T12:31:44;101497.31;;;4.44;90.17
60974;BME280;46846;51.528;5.076;2023-12-14T12:34:11;101499.09;;;4.45;91.02
60974;BME280;46846;51.528;5.076;2023-12-14T12:36:36;101504.34;;;4.40;91.53
60974;BME280;46846;51.528;5.076;2023-12-14T12:39:02;101510.53;;;4.45;90.96
60974;BME280;46846;51.528;5.076;2023-12-14T12:41:28;101499.97;;;4.42;91.22
60974;BME280;46846;51.528;5.076;2023-12-14T12:43:53;101507.91;;;4.47;91.23
60974;BME280;46846;51.528;5.076;2023-12-14T12:46:19;101514.03;;;4.44;91.44
60974;BME280;46846;51.528;5.076;2023-12-14T12:48:44;101516.66;;;4.47;91.31
60974;BME280;46846;51.528;5.076;2023-12-14T12:51:12;101516.66;;;4.47;90.85
60974;BME280;46846;51.528;5.076;2023-12-14T12:53:37;101510.53;;;4.45;91.59
60974;BME280;46846;51.528;5.076;2023-12-14T12:56:03;101517.56;;;4.43;91.75